Koeln, Germany

1:25 PM CEST on September 30, 2014 (GMT +0200)
Lind | Change Station
CLOSE
Current Station
Personal Weather Station
Location: Koeln, NRW
Elevation: 177 ft
Nearby Weather Stations

Elev 177 ft 50.85 °N, 7.10 °E | Updated 44 seconds ago

Scattered Clouds
Scattered Clouds
69.0 °F
Feels Like 69.0 °F
N
1.0
Wind Variable Wind from WSW
Gusts 3.0 mph

Today
High -- | Low -- °F
--% Chance of Precip.
Yesterday
High -- | Low -- °F
Precip. -- in
7:29 AM 7:11 PM
Waxing Crescent, 36% visible
Pressure 30.27 in
Visibility 6.2 miles
Clouds Few 1300 ft
Scattered Clouds 2300 ft
Dew Point 62 °F
Humidity 77%
Rainfall 0.00 in
Snow Depth Not available.
UV 0.0 out of 12
Pollen Not available.
Air Quality Not available.
Flu Activity Not available.
METAR EDDK 301120Z VRB03KT 9999 FEW013 SCT023 19/16 Q1025 NOSIG

More Conditions Fewer Conditions

Pressure 30.27 in
Visibility 6.2 miles
Clouds Few 1300 ft
Scattered Clouds 2300 ft
Dew Point 62 °F
Humidity 77%
Rainfall 0.00 in
Snow Depth Not available.
UV 0.0 out of 12
Pollen Not available.
Air Quality Not available.
Flu Activity Not available.
METAR EDDK 301120Z VRB03KT 9999 FEW013 SCT023 19/16 Q1025 NOSIG

More Conditions Fewer Conditions

10-Day Weather Forecast

Almanac

Astronomy

Sep. 30, 2014 Rise Set
Actual Time 7:29 AM CEST 7:11 PM CEST
Civil Twilight 6:56 AM CEST 7:44 PM CEST
Nautical Twilight 6:18 AM CEST 8:22 PM CEST
Astronomical Twilight 5:39 AM CEST 9:02 PM CEST
Moon 1:52 PM CEST 10:56 PM CEST
Length of Visible Light 12h 47m
Length of Day
11h 42m
Tomorrow will be 3m 49s shorter.
Waxing Crescent, 36% of the Moon is Illuminated
Today
Waxing Crescent
Oct 1
First Quarter
Oct 8
Full
Oct 15
Last Quarter
Oct 23
New

Yesterday's Extremes

Country Highs Country Lows

Community

WunderPhotos

Upload Photos

1,757,617 photos uploaded!

WunderBlogs® & News

Nearby

Snow Depth

Not available.

Earthquake Activity

City Distance Mag. Time & Date
No recent earthquake activity has been reported nearby.
Minimum magnitude displayed is 2.5.

Coastal Water Temperatures

Place Temperature
No Stations Reporting

Nearby Weather Stations